createdAt,value
2024-01-17T00:00:24.303Z,10.93
2024-01-17T00:02:52.681Z,11.63
2024-01-17T00:05:21.204Z,8.77
2024-01-17T00:07:49.631Z,7.97
2024-01-17T00:10:18.188Z,9.88
2024-01-17T00:12:46.590Z,8.57
2024-01-17T00:15:16.315Z,6.53
2024-01-17T00:17:44.745Z,10.63
2024-01-17T00:20:13.374Z,11.63
2024-01-17T00:22:41.749Z,10.98
2024-01-17T00:25:11.026Z,8.02
2024-01-17T00:27:39.528Z,11.40
2024-01-17T00:30:08.570Z,9.07
2024-01-17T00:32:38.743Z,7.60
2024-01-17T00:35:09.642Z,7.15
2024-01-17T00:37:38.085Z,9.15
2024-01-17T00:40:06.897Z,11.85
2024-01-17T00:42:35.262Z,8.30
2024-01-17T00:45:05.349Z,13.18
2024-01-17T00:47:33.867Z,11.07
2024-01-17T00:50:04.532Z,12.95
2024-01-17T00:52:33.064Z,9.23
2024-01-17T00:55:01.552Z,12.68
2024-01-17T00:57:29.955Z,10.98
2024-01-17T00:59:58.353Z,7.55
2024-01-17T01:02:27.008Z,10.38
2024-01-17T01:04:55.377Z,11.15
2024-01-17T01:07:25.114Z,8.40
2024-01-17T01:09:57.212Z,9.13
2024-01-17T01:12:25.993Z,7.95
2024-01-17T01:14:54.389Z,7.47
2024-01-17T01:17:22.895Z,9.35
2024-01-17T01:19:51.282Z,9.65
2024-01-17T01:22:19.648Z,9.23
2024-01-17T01:24:49.280Z,10.50
2024-01-17T01:27:17.785Z,9.10
2024-01-17T01:29:46.123Z,9.75
2024-01-17T01:32:14.486Z,8.32
2024-01-17T01:34:42.871Z,10.07
2024-01-17T01:37:11.239Z,6.38
2024-01-17T01:39:39.569Z,7.82
2024-01-17T01:42:09.646Z,8.82
2024-01-17T01:44:38.055Z,9.48
2024-01-17T01:47:08.337Z,7.93
2024-01-17T01:49:37.740Z,7.68
2024-01-17T01:52:07.602Z,9.93
2024-01-17T01:54:36.413Z,13.20
2024-01-17T01:57:05.609Z,8.80
2024-01-17T01:59:37.857Z,8.02
2024-01-17T02:02:07.092Z,9.00
2024-01-17T02:04:36.251Z,10.88
2024-01-17T02:07:05.201Z,9.85
2024-01-17T02:09:34.003Z,7.97
2024-01-17T02:12:02.509Z,7.63
2024-01-17T02:14:31.705Z,12.95
2024-01-17T02:17:01.416Z,7.75
2024-01-17T02:19:29.810Z,8.77
2024-01-17T02:21:58.174Z,11.25
2024-01-17T02:24:30.001Z,11.48
2024-01-17T02:27:00.643Z,7.28
2024-01-17T02:29:29.304Z,8.52
2024-01-17T02:31:58.216Z,12.10
2024-01-17T02:34:26.845Z,12.38
2024-01-17T02:36:55.258Z,9.05
2024-01-17T02:39:25.940Z,9.40
2024-01-17T02:41:55.759Z,9.10
2024-01-17T02:44:24.279Z,8.98
2024-01-17T02:46:52.639Z,14.25
2024-01-17T02:49:22.342Z,11.85
2024-01-17T02:51:50.958Z,11.38
2024-01-17T02:54:19.389Z,13.80
2024-01-17T02:56:48.115Z,8.05
2024-01-17T02:59:17.908Z,12.00
2024-01-17T03:01:47.430Z,11.07
2024-01-17T03:04:16.531Z,12.10
2024-01-17T03:06:47.006Z,8.40
2024-01-17T03:09:15.940Z,9.02
2024-01-17T03:11:44.419Z,8.00
2024-01-17T03:14:12.912Z,10.60
2024-01-17T03:16:42.625Z,10.70
2024-01-17T03:19:11.153Z,9.82
2024-01-17T03:21:39.658Z,10.35
2024-01-17T03:24:08.491Z,9.88
2024-01-17T03:26:37.045Z,8.70
2024-01-17T03:29:05.454Z,10.00
2024-01-17T03:31:33.803Z,8.70
2024-01-17T03:34:03.587Z,11.23
2024-01-17T03:36:31.999Z,10.52
2024-01-17T03:39:00.406Z,10.35
2024-01-17T03:41:28.826Z,9.23
2024-01-17T03:43:57.252Z,7.93
2024-01-17T03:46:25.976Z,8.15
2024-01-17T03:48:54.534Z,8.88
2024-01-17T03:51:24.454Z,10.80
2024-01-17T03:53:52.821Z,11.13
2024-01-17T03:56:21.232Z,12.55
2024-01-17T03:58:49.695Z,11.15
2024-01-17T04:01:18.247Z,9.48
2024-01-17T04:03:46.834Z,9.18
2024-01-17T04:06:15.208Z,9.32
2024-01-17T04:08:45.604Z,11.40
2024-01-17T04:11:13.984Z,10.20
2024-01-17T04:13:45.756Z,15.98
2024-01-17T04:16:14.163Z,7.10
2024-01-17T04:18:42.661Z,11.85
2024-01-17T04:21:11.225Z,14.82
2024-01-17T04:23:39.732Z,11.95
2024-01-17T04:26:09.405Z,10.23
2024-01-17T04:28:37.922Z,10.98
2024-01-17T04:31:06.443Z,9.00
2024-01-17T04:33:35.255Z,8.65
2024-01-17T04:36:03.804Z,7.68
2024-01-17T04:38:32.541Z,7.30
2024-01-17T04:41:00.840Z,10.75
2024-01-17T04:43:31.063Z,8.98
2024-01-17T04:45:59.677Z,10.52
2024-01-17T04:48:28.156Z,8.60
2024-01-17T04:51:00.511Z,10.18
2024-01-17T04:53:29.417Z,8.23
2024-01-17T04:55:58.277Z,9.77
2024-01-17T04:58:26.621Z,11.57
2024-01-17T05:00:56.464Z,10.70
2024-01-17T05:03:24.824Z,8.90
2024-01-17T05:05:53.276Z,13.15
2024-01-17T05:08:21.685Z,14.70
2024-01-17T05:10:50.114Z,15.45
2024-01-17T05:13:18.448Z,9.65
2024-01-17T05:15:46.991Z,11.00
2024-01-17T05:18:16.838Z,14.60
2024-01-17T05:20:45.405Z,11.80
2024-01-17T05:23:13.741Z,12.48
2024-01-17T05:25:42.082Z,10.00
2024-01-17T05:28:10.425Z,7.80
2024-01-17T05:30:38.953Z,9.13
2024-01-17T05:33:07.716Z,10.85
2024-01-17T05:35:37.556Z,15.07
2024-01-17T05:38:06.188Z,9.63
2024-01-17T05:40:34.639Z,11.85
2024-01-17T05:43:03.994Z,12.20
2024-01-17T05:45:32.795Z,12.77
2024-01-17T05:48:01.291Z,11.00
2024-01-17T05:50:29.984Z,10.68
2024-01-17T05:52:59.740Z,11.45
2024-01-17T05:55:28.153Z,11.95
2024-01-17T05:57:56.505Z,9.73
2024-01-17T06:00:25.624Z,13.25
2024-01-17T06:02:54.194Z,12.38
2024-01-17T06:05:23.255Z,18.98
2024-01-17T06:07:51.677Z,14.55
2024-01-17T06:10:21.601Z,15.00
2024-01-17T06:12:49.997Z,14.27
2024-01-17T06:15:19.439Z,16.33
2024-01-17T06:17:48.002Z,51.42
2024-01-17T06:20:17.731Z,45.60
2024-01-17T06:22:46.293Z,52.53
2024-01-17T06:25:14.627Z,42.60
2024-01-17T06:27:44.349Z,35.88
2024-01-17T06:30:13.313Z,31.33
2024-01-17T06:32:41.877Z,30.25
2024-01-17T06:35:12.017Z,33.20
2024-01-17T06:37:40.417Z,31.98
2024-01-17T06:40:10.196Z,30.50
2024-01-17T06:42:38.528Z,33.00
2024-01-17T06:45:11.976Z,42.70
2024-01-17T06:50:09.332Z,35.55
2024-01-17T06:52:37.923Z,29.38
2024-01-17T06:55:06.631Z,25.38
2024-01-17T06:57:34.988Z,21.95
2024-01-17T07:00:04.341Z,22.05
2024-01-17T07:02:34.438Z,18.85
2024-01-17T07:05:03.277Z,19.13
2024-01-17T07:07:31.736Z,14.65
2024-01-17T07:10:02.394Z,15.75
2024-01-17T07:12:30.811Z,17.80
2024-01-17T07:14:59.240Z,16.02
2024-01-17T07:17:28.122Z,14.95
2024-01-17T07:19:57.873Z,17.67
2024-01-17T07:22:26.251Z,24.33
2024-01-17T07:24:54.597Z,27.00
2024-01-17T07:27:22.969Z,21.67
2024-01-17T07:29:57.501Z,30.38
2024-01-17T07:32:25.974Z,32.03
2024-01-17T07:34:54.651Z,25.83
2024-01-17T07:37:24.625Z,18.25
2024-01-17T07:39:52.976Z,14.50
2024-01-17T07:42:22.560Z,15.75
2024-01-17T07:44:50.920Z,17.63
2024-01-17T07:50:52.583Z,16.60
2024-01-17T07:57:59.937Z,16.80
2024-01-17T12:34:52.572Z,25.00
2024-01-17T12:37:42.363Z,21.15
2024-01-17T12:40:19.320Z,22.38
2024-01-17T12:43:04.358Z,17.40
2024-01-17T12:45:58.596Z,20.17
2024-01-17T12:52:46.323Z,16.27
2024-01-17T13:02:27.535Z,19.85
2024-01-17T13:05:41.908Z,25.92
2024-01-17T13:08:32.581Z,18.75
2024-01-17T13:11:13.874Z,21.73
2024-01-17T13:13:42.656Z,25.88
2024-01-17T13:16:11.270Z,23.98
2024-01-17T13:18:47.260Z,17.13
2024-01-17T13:21:27.377Z,17.33
2024-01-17T13:24:22.557Z,25.95
2024-01-17T13:27:02.513Z,26.65
2024-01-17T13:29:42.257Z,24.75
2024-01-17T13:32:35.791Z,28.08
2024-01-17T13:38:00.892Z,19.95
2024-01-17T13:40:54.281Z,26.83
2024-01-17T13:49:06.546Z,23.60
2024-01-17T13:51:52.098Z,20.67
2024-01-17T13:57:26.576Z,18.35
2024-01-17T14:00:22.055Z,15.52
2024-01-17T14:03:04.257Z,17.85
2024-01-17T14:05:41.767Z,16.80
2024-01-17T14:08:27.122Z,25.80
2024-01-17T14:11:05.492Z,19.60
2024-01-17T14:13:44.056Z,19.08
2024-01-17T14:16:44.022Z,18.17
2024-01-17T14:19:15.434Z,19.75
2024-01-17T14:24:32.367Z,21.70
2024-01-17T14:27:02.464Z,20.58
2024-01-17T14:29:31.185Z,20.75
2024-01-17T14:32:05.026Z,19.75
2024-01-17T14:37:10.009Z,16.40
2024-01-17T14:39:38.675Z,16.13
2024-01-17T14:42:25.661Z,19.08
2024-01-17T14:44:56.472Z,22.23
2024-01-17T14:47:32.289Z,24.25
2024-01-17T14:50:01.123Z,25.98
2024-01-17T14:52:38.869Z,19.63
2024-01-17T14:55:16.418Z,19.58
2024-01-17T14:57:52.669Z,23.52
2024-01-17T15:00:24.410Z,20.63
2024-01-17T15:05:59.022Z,19.85
2024-01-17T15:08:35.207Z,18.52
2024-01-17T15:11:03.607Z,21.75
2024-01-17T15:13:43.054Z,21.70
2024-01-17T15:16:23.772Z,19.42
2024-01-17T15:19:02.996Z,19.05
2024-01-17T15:21:47.171Z,20.05
2024-01-17T15:30:56.467Z,23.00
2024-01-17T15:33:45.678Z,23.50
2024-01-17T15:36:56.020Z,19.48
2024-01-17T15:42:32.814Z,23.02
2024-01-17T15:48:26.073Z,16.20
2024-01-17T15:51:00.810Z,18.85
2024-01-17T15:53:48.131Z,16.77
2024-01-17T15:56:29.549Z,18.10
2024-01-17T15:59:22.927Z,18.75
2024-01-17T16:02:35.546Z,21.77
2024-01-17T16:05:45.898Z,27.30
2024-01-17T16:11:42.018Z,27.20
2024-01-17T16:14:25.547Z,17.98
2024-01-17T16:16:56.718Z,16.58
2024-01-17T16:19:28.455Z,20.85
2024-01-17T16:22:15.019Z,26.20
2024-01-17T16:24:50.208Z,30.00
2024-01-17T16:27:44.923Z,36.53
2024-01-17T16:30:32.032Z,34.60
2024-01-17T16:33:08.545Z,33.42
2024-01-17T16:35:44.713Z,29.77
2024-01-17T16:38:15.585Z,34.47
2024-01-17T16:43:44.077Z,27.17
2024-01-17T16:46:20.349Z,24.15
2024-01-17T16:49:03.513Z,26.77
2024-01-17T16:51:37.263Z,26.20
2024-01-17T16:56:47.045Z,23.42
2024-01-17T16:59:23.834Z,22.60
2024-01-17T17:04:44.073Z,27.10
2024-01-17T17:10:12.834Z,19.15
2024-01-17T17:12:52.098Z,25.33
2024-01-17T17:15:33.120Z,39.13
2024-01-17T17:18:04.751Z,33.65
2024-01-17T17:20:37.246Z,24.40
2024-01-17T17:23:06.136Z,25.23
2024-01-17T17:25:43.325Z,25.30
2024-01-17T17:28:19.950Z,36.47
2024-01-17T17:31:01.354Z,40.05
2024-01-17T17:55:05.025Z,22.25
2024-01-17T18:17:09.917Z,20.27
2024-01-17T18:19:39.086Z,18.85
2024-01-17T18:22:22.689Z,17.23
2024-01-17T18:25:00.817Z,23.15
2024-01-17T18:27:41.806Z,31.02
2024-01-17T18:30:20.845Z,28.52
2024-01-17T18:35:38.613Z,32.70
2024-01-17T18:38:15.652Z,32.50
2024-01-17T18:40:45.128Z,28.20
2024-01-17T18:43:26.508Z,29.70
2024-01-17T18:46:10.825Z,25.75
2024-01-17T18:49:16.891Z,24.55
2024-01-17T18:52:25.698Z,22.63
2024-01-17T18:55:04.281Z,20.92
2024-01-17T18:58:02.615Z,22.67
2024-01-17T19:03:19.351Z,20.63
2024-01-17T19:20:59.626Z,23.35
2024-01-17T19:44:35.821Z,24.33
2024-01-17T19:47:18.360Z,22.83
2024-01-17T19:49:50.310Z,28.88
2024-01-17T19:52:23.236Z,26.67
2024-01-17T19:55:01.966Z,22.47
2024-01-17T19:57:43.516Z,24.98
2024-01-17T20:00:27.545Z,24.65
2024-01-17T20:05:42.118Z,22.35
2024-01-17T20:08:19.563Z,26.40
2024-01-17T20:10:58.395Z,25.50
2024-01-17T20:13:32.531Z,31.95
2024-01-17T20:16:07.988Z,28.83
2024-01-17T20:18:41.672Z,21.33
2024-01-17T20:21:28.615Z,20.30
2024-01-17T20:24:17.367Z,17.00
2024-01-17T20:27:03.039Z,19.60
2024-01-17T20:29:33.542Z,18.08
2024-01-17T20:32:06.109Z,17.35
2024-01-17T20:34:34.930Z,20.70
2024-01-17T20:37:07.225Z,19.55
2024-01-17T20:39:38.159Z,18.50
2024-01-17T20:42:13.759Z,18.67
2024-01-17T20:44:43.643Z,16.40
2024-01-17T20:47:21.161Z,16.40
2024-01-17T20:49:55.585Z,16.27
2024-01-17T20:52:27.665Z,20.95
2024-01-17T20:54:56.334Z,16.33
2024-01-17T20:57:25.210Z,14.18
2024-01-17T20:59:57.206Z,15.80
2024-01-17T21:02:40.149Z,14.63
2024-01-17T21:05:30.653Z,14.45
2024-01-17T21:07:59.308Z,11.95
2024-01-17T21:10:33.857Z,12.70
2024-01-17T21:13:09.206Z,13.60
2024-01-17T21:15:37.913Z,12.65
2024-01-17T21:18:14.068Z,12.32
2024-01-17T21:20:45.632Z,16.35
2024-01-17T21:23:17.728Z,13.75
2024-01-17T21:25:49.302Z,12.63
2024-01-17T21:28:19.628Z,14.40
2024-01-17T21:30:57.349Z,16.08
2024-01-17T21:33:27.670Z,15.52
2024-01-17T21:36:01.526Z,16.63
2024-01-17T21:41:02.086Z,18.20
2024-01-17T21:43:30.698Z,19.77
2024-01-17T21:46:04.185Z,16.73
2024-01-17T21:48:35.593Z,15.18
2024-01-17T21:51:11.310Z,17.27
2024-01-17T21:53:44.720Z,14.50
2024-01-17T21:56:13.430Z,16.10
2024-01-17T21:58:42.216Z,15.05
2024-01-17T22:01:10.843Z,14.20
2024-01-17T22:03:41.048Z,11.75
2024-01-17T22:06:11.357Z,13.48
2024-01-17T22:08:48.711Z,13.93
2024-01-17T22:11:23.613Z,12.77
2024-01-17T22:13:52.089Z,13.13
2024-01-17T22:16:20.729Z,13.20
2024-01-17T22:18:50.910Z,17.50
2024-01-17T22:21:19.549Z,13.57
2024-01-17T22:23:48.216Z,13.60
2024-01-17T22:26:16.823Z,13.20
2024-01-17T22:28:45.693Z,13.43
2024-01-17T22:31:15.036Z,15.25
2024-01-17T22:33:47.764Z,13.43
2024-01-17T22:36:23.992Z,10.63
2024-01-17T22:39:04.037Z,12.40
2024-01-17T22:41:34.815Z,14.82
2024-01-17T22:44:10.243Z,14.65
2024-01-17T22:46:38.866Z,14.30
2024-01-17T22:49:07.351Z,19.88
2024-01-17T22:51:37.407Z,16.30
2024-01-17T22:54:06.546Z,17.27
2024-01-17T22:56:39.032Z,13.70
2024-01-17T22:59:10.116Z,19.52
2024-01-17T23:01:38.765Z,13.93
2024-01-17T23:04:14.666Z,15.57
2024-01-17T23:06:45.271Z,12.52
2024-01-17T23:09:13.945Z,13.75
2024-01-17T23:11:42.618Z,11.48
2024-01-17T23:14:15.196Z,14.15
2024-01-17T23:16:43.763Z,15.52
2024-01-17T23:19:18.290Z,16.17
2024-01-17T23:21:48.432Z,17.58
2024-01-17T23:24:20.841Z,17.67
2024-01-17T23:26:51.080Z,14.52
2024-01-17T23:29:21.723Z,15.73
2024-01-17T23:31:50.472Z,16.58
2024-01-17T23:34:19.362Z,17.30
2024-01-17T23:36:50.055Z,15.15
2024-01-17T23:39:18.697Z,17.08
2024-01-17T23:41:47.527Z,13.93
2024-01-17T23:44:17.150Z,16.52
2024-01-17T23:46:47.682Z,17.50
2024-01-17T23:49:16.696Z,17.95
2024-01-17T23:51:45.442Z,17.45
2024-01-17T23:54:18.993Z,15.25
2024-01-17T23:56:48.552Z,17.98
2024-01-17T23:59:19.070Z,13.80
